createdAt,value
2022-12-22T00:00:13.578Z,0.19
2022-12-22T00:01:53.258Z,0.19
2022-12-22T00:03:32.982Z,0.19
2022-12-22T00:05:12.754Z,0.17
2022-12-22T00:06:52.549Z,0.18
2022-12-22T00:08:32.301Z,0.2
2022-12-22T00:10:12.118Z,0.18
2022-12-22T00:11:51.839Z,0.17
2022-12-22T00:13:31.681Z,0.19
2022-12-22T00:15:11.362Z,0.19
2022-12-22T00:16:51.125Z,0.2
2022-12-22T00:18:30.984Z,0.19
2022-12-22T00:20:10.746Z,0.19
2022-12-22T00:21:50.435Z,0.19
2022-12-22T00:23:30.205Z,0.19
2022-12-22T00:25:09.948Z,0.18
2022-12-22T00:26:49.730Z,0.19
2022-12-22T00:28:29.499Z,0.2
2022-12-22T00:30:09.268Z,0.2
2022-12-22T00:31:49.061Z,0.19
2022-12-22T00:33:28.812Z,0.19
2022-12-22T00:35:08.561Z,0.18
2022-12-22T00:36:48.324Z,0.19
2022-12-22T00:38:28.099Z,0.2
2022-12-22T00:40:07.861Z,0.22
2022-12-22T00:41:47.624Z,0.19
2022-12-22T00:43:27.397Z,0.19
2022-12-22T00:45:07.187Z,0.19
2022-12-22T00:46:46.950Z,0.21
2022-12-22T00:48:26.698Z,0.18
2022-12-22T00:50:06.534Z,0.2
2022-12-22T00:51:46.239Z,0.21
2022-12-22T00:53:25.999Z,0.19
2022-12-22T00:55:05.769Z,0.2
2022-12-22T00:56:45.552Z,0.21
2022-12-22T00:58:25.314Z,0.21
2022-12-22T01:00:05.087Z,0.23
2022-12-22T01:01:44.881Z,0.23
2022-12-22T01:03:24.605Z,0.21
2022-12-22T01:05:04.366Z,0.21
2022-12-22T01:06:44.151Z,0.22
2022-12-22T01:08:23.916Z,0.19
2022-12-22T01:10:03.686Z,0.21
2022-12-22T01:11:43.478Z,0.19
2022-12-22T01:13:23.222Z,0.18
2022-12-22T01:15:02.981Z,0.18
2022-12-22T01:16:42.743Z,0.18
2022-12-22T01:18:22.525Z,0.19
2022-12-22T01:20:02.304Z,0.21
2022-12-22T01:21:42.056Z,0.19
2022-12-22T01:23:21.824Z,0.21
2022-12-22T01:25:01.584Z,0.21
2022-12-22T01:26:41.344Z,0.21
2022-12-22T01:28:21.126Z,0.19
2022-12-22T01:30:00.894Z,0.22
2022-12-22T01:31:40.650Z,0.18
2022-12-22T01:33:20.424Z,0.2
2022-12-22T01:35:00.217Z,0.21
2022-12-22T01:36:39.949Z,0.21
2022-12-22T01:38:19.727Z,0.21
2022-12-22T01:39:59.498Z,0.21
2022-12-22T01:41:39.294Z,0.19
2022-12-22T01:43:19.037Z,0.19
2022-12-22T01:44:58.779Z,0.21
2022-12-22T01:46:38.554Z,0.21
2022-12-22T01:48:18.324Z,0.19
2022-12-22T01:49:58.111Z,0.22
2022-12-22T01:51:37.928Z,0.22
2022-12-22T01:53:17.644Z,0.22
2022-12-22T01:54:57.399Z,0.21
2022-12-22T01:56:37.167Z,0.22
2022-12-22T01:58:16.942Z,0.22
2022-12-22T01:59:56.754Z,0.22
2022-12-22T02:01:36.480Z,0.26
2022-12-22T02:03:16.230Z,0.23
2022-12-22T02:04:55.991Z,0.23
2022-12-22T02:06:35.759Z,0.23
2022-12-22T02:08:15.534Z,0.23
2022-12-22T02:09:55.301Z,0.24
2022-12-22T02:11:35.065Z,0.23
2022-12-22T02:13:14.848Z,0.23
2022-12-22T02:14:54.602Z,0.24
2022-12-22T02:16:34.386Z,0.22
2022-12-22T02:18:14.131Z,0.22
2022-12-22T02:19:53.910Z,0.21
2022-12-22T02:21:33.682Z,0.23
2022-12-22T02:23:13.437Z,0.2
2022-12-22T02:24:53.248Z,0.21
2022-12-22T02:26:32.976Z,0.19
2022-12-22T02:28:12.736Z,0.2
2022-12-22T02:29:52.525Z,0.2
2022-12-22T02:31:32.268Z,0.21
2022-12-22T02:33:12.038Z,0.19
2022-12-22T02:34:51.805Z,0.2
2022-12-22T02:36:31.580Z,0.22
2022-12-22T02:38:11.339Z,0.23
2022-12-22T02:39:51.194Z,0.23
2022-12-22T02:41:30.895Z,0.2
2022-12-22T02:43:10.653Z,0.21
2022-12-22T02:44:50.418Z,0.21
2022-12-22T02:46:30.182Z,0.19
2022-12-22T02:48:09.948Z,0.21
2022-12-22T02:49:49.721Z,0.19
2022-12-22T02:51:29.492Z,0.19
2022-12-22T02:53:09.273Z,0.19
2022-12-22T02:54:49.014Z,0.2
2022-12-22T02:56:28.793Z,0.19
2022-12-22T02:58:08.566Z,0.23
2022-12-22T02:59:48.313Z,0.21
2022-12-22T03:01:28.080Z,0.2
2022-12-22T03:03:07.863Z,0.22
2022-12-22T03:04:47.624Z,0.21
2022-12-22T03:06:27.400Z,0.21
2022-12-22T03:08:07.151Z,0.22
2022-12-22T03:09:46.912Z,0.23
2022-12-22T03:11:26.687Z,0.22
2022-12-22T03:13:06.468Z,0.25
2022-12-22T03:14:46.246Z,0.25
2022-12-22T03:16:26.039Z,0.25
2022-12-22T03:18:05.759Z,0.26
2022-12-22T03:19:45.528Z,0.24
2022-12-22T03:21:25.286Z,0.26
2022-12-22T03:23:05.098Z,0.25
2022-12-22T03:24:44.859Z,0.24
2022-12-22T03:26:24.598Z,0.26
2022-12-22T03:28:04.370Z,0.24
2022-12-22T03:29:44.137Z,0.23
2022-12-22T03:31:23.909Z,0.26
2022-12-22T03:33:03.685Z,0.26
2022-12-22T03:34:43.436Z,0.28
2022-12-22T03:36:23.202Z,0.25
2022-12-22T03:38:02.970Z,0.28
2022-12-22T03:39:42.730Z,0.28
2022-12-22T03:41:22.499Z,0.28
2022-12-22T03:43:02.265Z,0.25
2022-12-22T03:44:42.038Z,0.26
2022-12-22T03:46:21.791Z,0.27
2022-12-22T03:48:01.570Z,0.28
2022-12-22T03:49:41.346Z,0.27
2022-12-22T03:51:21.107Z,0.25
2022-12-22T03:53:00.875Z,0.26
2022-12-22T03:54:40.648Z,0.3
2022-12-22T03:56:20.399Z,0.29
2022-12-22T03:58:00.165Z,0.28
2022-12-22T03:59:39.941Z,0.28
2022-12-22T04:01:19.720Z,0.29
2022-12-22T04:02:59.479Z,0.27
2022-12-22T04:04:39.265Z,0.27
2022-12-22T04:06:18.999Z,0.3
2022-12-22T04:07:58.780Z,0.28
2022-12-22T04:09:38.578Z,0.31
2022-12-22T04:11:18.374Z,0.3
2022-12-22T04:12:58.163Z,0.32
2022-12-22T04:14:37.841Z,0.31
2022-12-22T04:16:17.615Z,0.33
2022-12-22T04:17:57.386Z,0.32
2022-12-22T04:19:37.156Z,0.32
2022-12-22T04:21:16.926Z,0.33
2022-12-22T04:22:56.685Z,0.34
2022-12-22T04:24:36.464Z,0.32
2022-12-22T04:26:16.223Z,0.34
2022-12-22T04:27:55.970Z,0.33
2022-12-22T04:29:35.777Z,0.34
2022-12-22T04:31:15.526Z,0.34
2022-12-22T04:32:55.281Z,0.31
2022-12-22T04:34:35.069Z,0.3
2022-12-22T04:36:14.809Z,0.32
2022-12-22T04:37:54.587Z,0.31
2022-12-22T04:39:34.348Z,0.32
2022-12-22T04:41:14.116Z,0.31
2022-12-22T04:42:53.888Z,0.3
2022-12-22T04:44:33.657Z,0.32
2022-12-22T04:46:13.426Z,0.35
2022-12-22T04:47:53.199Z,0.33
2022-12-22T04:49:32.960Z,0.29
2022-12-22T04:51:12.721Z,0.3
2022-12-22T04:52:52.497Z,0.32
2022-12-22T04:54:32.261Z,0.31
2022-12-22T04:56:12.030Z,0.31
2022-12-22T04:57:51.795Z,0.3
2022-12-22T04:59:31.544Z,0.29
2022-12-22T05:01:11.334Z,0.32
2022-12-22T05:02:51.079Z,0.32
2022-12-22T05:04:30.846Z,0.33
2022-12-22T05:06:10.612Z,0.33
2022-12-22T05:07:50.374Z,0.34
2022-12-22T05:09:30.138Z,0.33
2022-12-22T05:11:09.897Z,0.33
2022-12-22T05:12:49.664Z,0.31
2022-12-22T05:14:29.483Z,0.33
2022-12-22T05:16:09.205Z,0.35
2022-12-22T05:17:48.996Z,0.35
2022-12-22T05:19:28.743Z,0.33
2022-12-22T05:21:08.517Z,0.33
2022-12-22T05:22:48.270Z,0.36
2022-12-22T05:24:28.043Z,0.34
2022-12-22T05:26:07.808Z,0.37
2022-12-22T05:27:47.569Z,0.33
2022-12-22T05:29:27.343Z,0.33
2022-12-22T05:31:07.117Z,0.35
2022-12-22T05:32:46.864Z,0.34
2022-12-22T05:34:26.637Z,0.35
2022-12-22T05:36:06.410Z,0.31
2022-12-22T05:37:46.172Z,0.34
2022-12-22T05:39:25.932Z,0.34
2022-12-22T05:41:05.761Z,0.32
2022-12-22T05:42:45.490Z,0.35
2022-12-22T05:44:25.263Z,0.33
2022-12-22T05:46:05.019Z,0.31
2022-12-22T05:47:44.795Z,0.31
2022-12-22T05:49:24.550Z,0.32
2022-12-22T05:51:04.300Z,0.3
2022-12-22T05:52:44.088Z,0.3
2022-12-22T05:54:23.850Z,0.28
2022-12-22T05:56:03.692Z,0.31
2022-12-22T05:57:43.382Z,0.32
2022-12-22T05:59:23.155Z,0.3
2022-12-22T06:01:02.928Z,0.31
2022-12-22T06:02:42.679Z,0.33
2022-12-22T06:04:22.446Z,0.32
2022-12-22T06:06:02.264Z,0.33
2022-12-22T06:07:41.991Z,0.32
2022-12-22T06:09:21.814Z,0.35
2022-12-22T06:11:01.587Z,0.36
2022-12-22T06:12:41.297Z,0.39
2022-12-22T06:14:21.124Z,0.41
2022-12-22T06:16:00.837Z,0.45
2022-12-22T06:17:40.598Z,0.51
2022-12-22T06:19:20.351Z,0.58
2022-12-22T06:21:00.231Z,0.64
2022-12-22T06:22:39.950Z,0.71
2022-12-22T06:24:19.667Z,0.78
2022-12-22T06:25:59.539Z,0.96
2022-12-22T06:27:39.194Z,1.19
2022-12-22T06:29:18.964Z,1.46
2022-12-22T06:30:58.751Z,1.71
2022-12-22T06:32:38.559Z,2.18
2022-12-22T06:34:18.347Z,2.71
2022-12-22T06:35:58.026Z,3.44
2022-12-22T06:37:37.793Z,3.8
2022-12-22T06:39:17.581Z,4.31
2022-12-22T06:40:57.369Z,5.54
2022-12-22T06:42:37.099Z,7.3
2022-12-22T06:44:16.947Z,9.35
2022-12-22T06:45:56.678Z,12.61
2022-12-22T06:47:36.461Z,15.28
2022-12-22T06:49:16.254Z,18.11
2022-12-22T06:50:55.977Z,22.9
2022-12-22T06:52:35.766Z,26.07
2022-12-22T06:54:15.539Z,30.02
2022-12-22T06:55:55.361Z,26.65
2022-12-22T06:57:35.064Z,26.67
2022-12-22T06:59:14.815Z,26.67
2022-12-22T07:00:54.554Z,26.67
2022-12-22T07:02:34.308Z,26.68
2022-12-22T07:04:14.119Z,26.71
2022-12-22T07:05:53.948Z,26.7
2022-12-22T07:07:33.662Z,26.71
2022-12-22T07:09:13.366Z,26.72
2022-12-22T07:10:53.157Z,26.72
2022-12-22T07:12:32.909Z,26.66
2022-12-22T07:14:12.848Z,26.72
2022-12-22T07:15:52.430Z,26.73
2022-12-22T07:17:32.220Z,26.73
2022-12-22T07:19:12.028Z,26.74
2022-12-22T07:20:51.813Z,26.74
2022-12-22T07:22:31.519Z,26.75
2022-12-22T07:24:11.440Z,26.77
2022-12-22T07:25:51.114Z,26.78
2022-12-22T07:27:30.816Z,26.76
2022-12-22T07:29:10.606Z,26.79
2022-12-22T07:30:50.478Z,26.81
2022-12-22T07:32:30.178Z,26.82
2022-12-22T07:34:09.899Z,26.82
2022-12-22T07:35:49.697Z,26.82
2022-12-22T07:37:29.421Z,26.8
2022-12-22T07:39:09.206Z,26.84
2022-12-22T07:40:49.022Z,26.85
2022-12-22T07:42:28.741Z,26.83
2022-12-22T07:44:08.562Z,26.85
2022-12-22T07:45:48.277Z,26.85
2022-12-22T07:47:28.029Z,26.86
2022-12-22T07:49:07.861Z,26.87
2022-12-22T07:50:47.569Z,26.9
2022-12-22T07:52:27.393Z,26.92
2022-12-22T07:54:07.108Z,27.15
2022-12-22T07:55:46.884Z,32.87
2022-12-22T07:57:26.632Z,27
2022-12-22T07:59:06.412Z,26.99
2022-12-22T08:00:46.200Z,26.97
2022-12-22T08:02:26.049Z,26.92
2022-12-22T08:04:05.709Z,26.95
2022-12-22T08:05:45.681Z,26.94
2022-12-22T08:07:25.287Z,26.98
2022-12-22T08:09:05.166Z,26.97
2022-12-22T08:10:44.774Z,27
2022-12-22T08:12:24.671Z,27.02
2022-12-22T08:14:04.361Z,27.04
2022-12-22T08:15:44.238Z,27.04
2022-12-22T08:17:23.864Z,27.06
2022-12-22T08:19:03.751Z,27.08
2022-12-22T08:20:43.471Z,27.08
2022-12-22T08:22:23.164Z,27.07
2022-12-22T08:24:02.914Z,27.08
2022-12-22T08:25:42.781Z,27.08
2022-12-22T08:27:22.531Z,27.08
2022-12-22T08:29:02.310Z,27.12
2022-12-22T08:30:42.088Z,27.14
2022-12-22T08:32:21.826Z,27.15
2022-12-22T08:34:01.561Z,27.2
2022-12-22T08:35:41.402Z,27.23
2022-12-22T08:37:21.071Z,27.24
2022-12-22T08:39:00.846Z,27.27
2022-12-22T08:40:40.688Z,27.28
2022-12-22T08:42:20.471Z,27.31
2022-12-22T08:44:00.178Z,27.33
2022-12-22T08:45:39.915Z,27.32
2022-12-22T08:47:19.820Z,27.34
2022-12-22T08:48:59.465Z,27.25
2022-12-22T08:50:39.227Z,27.27
2022-12-22T08:52:19.012Z,27.29
2022-12-22T08:53:58.781Z,27.01
2022-12-22T08:55:38.557Z,36.03
2022-12-22T08:57:18.519Z,27.83
2022-12-22T08:58:58.098Z,27.27
2022-12-22T09:00:37.859Z,27.28
2022-12-22T09:02:17.620Z,27.29
2022-12-22T09:03:57.386Z,27.29
2022-12-22T09:05:37.160Z,27.31
2022-12-22T09:07:17.011Z,27.28
2022-12-22T09:08:56.702Z,27.29
2022-12-22T09:10:36.495Z,27.29
2022-12-22T09:12:16.281Z,27.38
2022-12-22T09:13:56.026Z,27.38
2022-12-22T09:15:35.793Z,27.36
2022-12-22T09:17:15.596Z,27.35
2022-12-22T09:18:55.329Z,27.3
2022-12-22T09:20:35.110Z,27.32
2022-12-22T09:22:14.948Z,27.31
2022-12-22T09:23:54.619Z,27.28
2022-12-22T09:25:34.371Z,27.27
2022-12-22T09:27:14.148Z,27.3
2022-12-22T09:28:53.925Z,27.31
2022-12-22T09:30:33.700Z,27.33
2022-12-22T09:32:13.468Z,27.3
2022-12-22T09:33:53.211Z,27.32
2022-12-22T09:35:33.013Z,27.3
2022-12-22T09:37:12.775Z,27.24
2022-12-22T09:38:52.656Z,27.28
2022-12-22T09:40:32.307Z,27.29
2022-12-22T09:42:12.186Z,27.26
2022-12-22T09:43:51.936Z,27.26
2022-12-22T09:45:31.691Z,27.31
2022-12-22T09:47:11.391Z,27.35
2022-12-22T09:48:51.243Z,27.33
2022-12-22T09:50:30.911Z,27.41
2022-12-22T09:52:10.762Z,27.45
2022-12-22T09:53:50.452Z,27.51
2022-12-22T09:55:30.244Z,80.94
2022-12-22T09:57:10.049Z,39.5
2022-12-22T09:58:49.761Z,27.56
2022-12-22T10:00:29.538Z,27.53
2022-12-22T10:02:09.307Z,27.51
2022-12-22T10:03:49.080Z,27.5
2022-12-22T10:05:28.841Z,27.54
2022-12-22T10:07:08.705Z,27.55
2022-12-22T10:08:48.395Z,27.48
2022-12-22T10:10:28.158Z,27.37
2022-12-22T10:12:07.925Z,27.51
2022-12-22T10:13:47.828Z,27.53
2022-12-22T10:15:27.473Z,27.58
2022-12-22T10:17:07.260Z,27.68
2022-12-22T10:18:47.065Z,27.63
2022-12-22T10:20:26.779Z,27.73
2022-12-22T10:22:06.543Z,27.72
2022-12-22T10:23:46.397Z,27.7
2022-12-22T10:25:26.092Z,27.72
2022-12-22T10:27:05.863Z,27.78
2022-12-22T10:28:45.652Z,27.83
2022-12-22T10:30:25.404Z,27.78
2022-12-22T10:32:05.169Z,27.82
2022-12-22T10:33:44.950Z,27.78
2022-12-22T10:35:24.701Z,27.76
2022-12-22T10:37:04.649Z,27.62
2022-12-22T10:38:44.255Z,27.78
2022-12-22T10:40:24.116Z,27.72
2022-12-22T10:42:03.793Z,27.71
2022-12-22T10:43:43.555Z,27.69
2022-12-22T10:45:23.331Z,27.71
2022-12-22T10:47:03.106Z,27.74
2022-12-22T10:48:42.863Z,27.74
2022-12-22T10:50:22.639Z,27.76
2022-12-22T10:52:02.432Z,27.73
2022-12-22T10:53:42.178Z,27.74
2022-12-22T10:55:21.949Z,27.78
2022-12-22T10:57:01.770Z,43.92
2022-12-22T10:58:41.485Z,34.93
2022-12-22T11:00:21.250Z,27.84
2022-12-22T11:02:01.029Z,27.85
2022-12-22T11:03:40.807Z,27.85
2022-12-22T11:05:20.571Z,27.84
2022-12-22T11:07:00.349Z,27.82
2022-12-22T11:08:40.103Z,27.79
2022-12-22T11:10:19.878Z,27.74
2022-12-22T11:11:59.659Z,27.72
2022-12-22T11:13:39.437Z,27.69
2022-12-22T11:15:19.180Z,27.72
2022-12-22T11:16:58.965Z,27.76
2022-12-22T11:18:38.722Z,27.77
2022-12-22T11:20:18.525Z,27.74
2022-12-22T11:21:58.267Z,27.74
2022-12-22T11:23:38.053Z,27.82
2022-12-22T11:25:17.819Z,27.88
2022-12-22T11:26:57.584Z,27.9
2022-12-22T11:28:37.361Z,27.76
2022-12-22T11:30:17.131Z,28.03
2022-12-22T11:31:56.888Z,28.05
2022-12-22T11:33:36.665Z,28.03
2022-12-22T11:35:16.425Z,27.95
2022-12-22T11:36:56.209Z,27.92
2022-12-22T11:38:35.970Z,27.91
2022-12-22T11:40:15.735Z,27.9
2022-12-22T11:41:55.509Z,27.92
2022-12-22T11:43:35.278Z,27.92
2022-12-22T11:45:15.062Z,27.95
2022-12-22T11:46:54.815Z,27.93
2022-12-22T11:48:34.595Z,27.93
2022-12-22T11:50:14.374Z,27.89
2022-12-22T11:51:54.127Z,27.85
2022-12-22T11:53:33.905Z,27.77
2022-12-22T11:55:13.765Z,27.79
2022-12-22T11:56:53.554Z,27.83
2022-12-22T11:58:33.264Z,40.68
2022-12-22T12:00:12.994Z,27.94
2022-12-22T12:01:52.782Z,27.93
2022-12-22T12:03:32.531Z,27.9
2022-12-22T12:05:12.315Z,27.85
2022-12-22T12:06:52.075Z,27.86
2022-12-22T12:08:31.846Z,27.83
2022-12-22T12:10:11.609Z,27.83
2022-12-22T12:11:51.379Z,27.85
2022-12-22T12:13:31.151Z,27.87
2022-12-22T12:15:10.906Z,27.89
2022-12-22T12:16:50.686Z,27.9
2022-12-22T12:18:30.466Z,27.92
2022-12-22T12:20:10.260Z,27.85
2022-12-22T12:21:49.985Z,27.93
2022-12-22T12:23:29.776Z,27.94
2022-12-22T12:25:09.529Z,27.94
2022-12-22T12:26:49.306Z,27.94
2022-12-22T12:28:29.093Z,27.95
2022-12-22T12:30:08.849Z,27.97
2022-12-22T12:31:48.626Z,27.99
2022-12-22T12:33:28.387Z,28.02
2022-12-22T12:35:08.155Z,28.02
2022-12-22T12:36:47.938Z,28.02
2022-12-22T12:38:27.690Z,28.01
2022-12-22T12:40:07.475Z,27.95
2022-12-22T12:41:47.260Z,27.97
2022-12-22T12:43:27.009Z,27.97
2022-12-22T12:45:06.772Z,27.96
2022-12-22T12:46:46.541Z,27.94
2022-12-22T12:48:26.322Z,28
2022-12-22T12:50:06.082Z,28.02
2022-12-22T12:51:45.884Z,28
2022-12-22T12:53:25.631Z,27.97
2022-12-22T12:55:05.390Z,27.99
2022-12-22T12:56:45.170Z,27.99
2022-12-22T12:58:24.942Z,44.63
2022-12-22T13:00:04.719Z,41.55
2022-12-22T13:01:44.495Z,28.05
2022-12-22T13:03:24.242Z,28.04
2022-12-22T13:05:04.028Z,28
2022-12-22T13:06:43.792Z,27.99
2022-12-22T13:08:23.572Z,27.94
2022-12-22T13:10:03.350Z,27.9
2022-12-22T13:11:43.111Z,27.83
2022-12-22T13:13:22.886Z,27.83
2022-12-22T13:15:02.640Z,27.78
2022-12-22T13:16:42.407Z,27.78
2022-12-22T13:18:22.171Z,27.75
2022-12-22T13:20:01.949Z,27.72
2022-12-22T13:21:41.719Z,27.7
2022-12-22T13:23:21.491Z,27.69
2022-12-22T13:25:01.387Z,27.69
2022-12-22T13:26:41.023Z,27.65
2022-12-22T13:28:20.800Z,27.65
2022-12-22T13:30:00.733Z,27.61
2022-12-22T13:31:40.519Z,27.61
2022-12-22T13:33:20.283Z,27.59
2022-12-22T13:34:59.891Z,27.59
2022-12-22T13:36:39.632Z,27.56
2022-12-22T13:38:19.515Z,27.59
2022-12-22T13:39:59.335Z,27.57
2022-12-22T13:41:39.090Z,27.57
2022-12-22T13:43:18.730Z,27.58
2022-12-22T13:44:58.542Z,27.57
2022-12-22T13:46:38.239Z,27.57
2022-12-22T13:48:18.017Z,27.58
2022-12-22T13:49:57.773Z,27.58
2022-12-22T13:51:37.595Z,27.58
2022-12-22T13:53:17.308Z,27.6
2022-12-22T13:54:57.090Z,27.58
2022-12-22T13:56:36.928Z,27.57
2022-12-22T13:58:16.635Z,27.55
2022-12-22T13:59:56.463Z,29.47
2022-12-22T14:01:36.393Z,27.49
2022-12-22T14:03:15.917Z,27.47
2022-12-22T14:04:55.719Z,27.44
2022-12-22T14:06:35.563Z,27.4
2022-12-22T14:08:15.386Z,27.38
2022-12-22T14:09:55.146Z,27.35
2022-12-22T14:11:34.806Z,27.31
2022-12-22T14:13:14.696Z,27.31
2022-12-22T14:14:54.376Z,27.29
2022-12-22T14:16:34.113Z,27.25
2022-12-22T14:18:13.906Z,27.26
2022-12-22T14:19:53.623Z,27.24
2022-12-22T14:21:33.358Z,27.22
2022-12-22T14:23:13.237Z,27.2
2022-12-22T14:24:52.894Z,27.2
2022-12-22T14:26:32.677Z,27.18
2022-12-22T14:28:12.433Z,27.18
2022-12-22T14:29:52.213Z,27.15
2022-12-22T14:31:31.963Z,27.13
2022-12-22T14:33:11.794Z,27.1
2022-12-22T14:34:51.515Z,27.1
2022-12-22T14:36:31.299Z,27.06
2022-12-22T14:38:11.073Z,27.03
2022-12-22T14:39:50.854Z,27.01
2022-12-22T14:41:30.584Z,26.98
2022-12-22T14:43:10.351Z,26.96
2022-12-22T14:44:50.182Z,26.94
2022-12-22T14:46:29.867Z,26.54
2022-12-22T14:48:09.641Z,26.81
2022-12-22T14:49:49.427Z,26.79
2022-12-22T14:51:29.188Z,26.69
2022-12-22T14:53:08.958Z,26.69
2022-12-22T14:54:48.712Z,26.65
2022-12-22T14:56:28.509Z,26.6
2022-12-22T14:58:08.300Z,26.52
2022-12-22T14:59:48.011Z,29.62
2022-12-22T15:01:27.799Z,26.45
2022-12-22T15:03:07.558Z,26.55
2022-12-22T15:04:47.320Z,26.51
2022-12-22T15:06:27.104Z,26.38
2022-12-22T15:08:06.863Z,26.32
2022-12-22T15:09:46.616Z,26.25
2022-12-22T15:11:26.392Z,26.2
2022-12-22T15:13:06.153Z,24.69
2022-12-22T15:14:45.998Z,21.41
2022-12-22T15:16:25.720Z,19.7
2022-12-22T15:18:05.472Z,18.87
2022-12-22T15:19:45.232Z,16.07
2022-12-22T15:21:25.013Z,13.94
2022-12-22T15:23:04.768Z,9.67
2022-12-22T15:24:44.536Z,7.3
2022-12-22T15:26:24.464Z,4.73
2022-12-22T15:28:04.059Z,3.16
2022-12-22T15:29:43.833Z,2.57
2022-12-22T15:31:23.588Z,2.52
2022-12-22T15:33:03.400Z,2.32
2022-12-22T15:34:43.136Z,2.05
2022-12-22T15:36:22.898Z,1.94
2022-12-22T15:38:02.694Z,1.78
2022-12-22T15:39:42.486Z,1.49
2022-12-22T15:41:22.278Z,1.35
2022-12-22T15:43:01.972Z,1.14
2022-12-22T15:44:41.760Z,0.96
2022-12-22T15:46:21.508Z,0.78
2022-12-22T15:48:01.281Z,0.65
2022-12-22T15:49:41.041Z,0.57
2022-12-22T15:51:20.809Z,0.51
2022-12-22T15:53:00.579Z,0.46
2022-12-22T15:54:40.358Z,0.46
2022-12-22T15:56:20.133Z,0.42
2022-12-22T15:57:59.886Z,0.42
2022-12-22T15:59:39.644Z,0.4
2022-12-22T16:01:19.400Z,0.42
2022-12-22T16:02:59.174Z,0.41
2022-12-22T16:04:38.959Z,0.43
2022-12-22T16:06:18.706Z,0.4
2022-12-22T16:07:58.494Z,0.36
2022-12-22T16:09:38.323Z,0.35
2022-12-22T16:11:18.073Z,0.37
2022-12-22T16:12:57.785Z,0.4
2022-12-22T16:14:37.574Z,0.39
2022-12-22T16:16:17.340Z,0.4
2022-12-22T16:17:57.095Z,0.42
2022-12-22T16:19:36.861Z,0.45
2022-12-22T16:21:16.657Z,0.43
2022-12-22T16:22:56.397Z,0.46
2022-12-22T16:24:36.169Z,0.41
2022-12-22T16:26:16.015Z,0.43
2022-12-22T16:27:55.695Z,0.41
2022-12-22T16:29:35.468Z,0.43
2022-12-22T16:31:15.215Z,0.4
2022-12-22T16:32:54.997Z,0.4
2022-12-22T16:34:34.758Z,0.43
2022-12-22T16:36:14.557Z,0.4
2022-12-22T16:37:54.297Z,0.41
2022-12-22T16:39:34.069Z,0.44
2022-12-22T16:41:13.884Z,0.44
2022-12-22T16:46:25.825Z,0.36
2022-12-22T16:46:33.816Z,0.41
2022-12-22T16:46:34.692Z,0.3
2022-12-22T16:47:52.916Z,0.33
2022-12-22T16:49:32.677Z,0.32
2022-12-22T16:51:12.473Z,0.35
2022-12-22T16:52:52.197Z,0.39
2022-12-22T16:54:31.966Z,0.32
2022-12-22T16:56:11.733Z,0.26
2022-12-22T16:57:51.505Z,0.23
2022-12-22T16:59:31.266Z,0.23
2022-12-22T17:01:11.034Z,0.19
2022-12-22T17:02:50.805Z,0.21
2022-12-22T17:04:30.595Z,0.2
2022-12-22T17:06:10.447Z,0.21
2022-12-22T17:07:50.114Z,0.21
2022-12-22T17:09:29.891Z,0.19
2022-12-22T17:11:09.670Z,0.2
2022-12-22T17:12:49.463Z,0.19
2022-12-22T17:14:29.300Z,0.19
2022-12-22T17:16:08.964Z,0.18
2022-12-22T17:17:48.927Z,0.17
2022-12-22T17:19:28.541Z,0.18
2022-12-22T17:21:08.247Z,0.17
2022-12-22T17:22:48.054Z,0.18
2022-12-22T17:24:27.769Z,0.19
2022-12-22T17:26:07.549Z,0.19
2022-12-22T17:27:47.302Z,0.18
2022-12-22T17:29:27.094Z,0.2
2022-12-22T17:31:06.852Z,0.19
2022-12-22T17:32:46.615Z,0.21
2022-12-22T17:34:26.377Z,0.21
2022-12-22T17:36:06.207Z,0.24
2022-12-22T17:37:45.907Z,0.23
2022-12-22T17:39:25.775Z,0.24
2022-12-22T17:41:05.476Z,0.27
2022-12-22T17:42:45.295Z,0.28
2022-12-22T17:44:25.035Z,0.29
2022-12-22T17:46:04.759Z,0.29
2022-12-22T17:47:44.516Z,0.27
2022-12-22T17:49:24.361Z,0.31
2022-12-22T17:51:04.102Z,0.3
2022-12-22T17:52:43.856Z,0.33
2022-12-22T17:54:23.592Z,0.34
2022-12-22T17:56:03.354Z,0.33
2022-12-22T17:57:43.118Z,0.33
2022-12-22T17:59:22.885Z,0.33
2022-12-22T18:01:02.667Z,0.31
2022-12-22T18:02:42.431Z,0.24
2022-12-22T18:04:22.206Z,0.23
2022-12-22T18:06:01.951Z,0.23
2022-12-22T18:07:41.728Z,0.24
2022-12-22T18:09:21.503Z,0.25
2022-12-22T18:11:01.256Z,0.3
2022-12-22T18:12:41.049Z,0.29
2022-12-22T18:14:20.907Z,0.3
2022-12-22T18:16:00.576Z,0.28
2022-12-22T18:17:40.336Z,0.29
2022-12-22T18:19:20.100Z,0.24
2022-12-22T18:20:59.867Z,0.22
2022-12-22T18:22:39.639Z,0.23
2022-12-22T18:24:19.470Z,0.24
2022-12-22T18:25:59.168Z,0.24
2022-12-22T18:27:38.938Z,0.23
2022-12-22T18:29:18.798Z,0.21
2022-12-22T18:30:58.460Z,0.23
2022-12-22T18:32:38.246Z,0.23
2022-12-22T18:34:18.021Z,0.26
2022-12-22T18:35:57.816Z,0.27
2022-12-22T18:37:37.537Z,0.24
2022-12-22T18:39:17.307Z,0.23
2022-12-22T18:40:57.068Z,0.27
2022-12-22T18:42:36.842Z,0.3
2022-12-22T18:44:16.605Z,0.27
2022-12-22T18:45:56.372Z,0.26
2022-12-22T18:47:36.197Z,0.24
2022-12-22T18:49:15.926Z,0.26
2022-12-22T18:50:55.667Z,0.22
2022-12-22T18:52:35.435Z,0.25
2022-12-22T18:54:15.207Z,0.24
2022-12-22T18:55:54.974Z,0.24
2022-12-22T18:57:34.743Z,0.24
2022-12-22T18:59:14.502Z,0.22
2022-12-22T19:00:54.304Z,0.22
2022-12-22T19:02:34.050Z,0.22
2022-12-22T19:04:13.922Z,0.21
2022-12-22T19:05:53.632Z,0.22
2022-12-22T19:07:33.352Z,0.19
2022-12-22T19:09:13.120Z,0.19
2022-12-22T19:10:52.929Z,0.21
2022-12-22T19:12:32.670Z,0.22
2022-12-22T19:14:12.429Z,0.23
2022-12-22T19:15:52.187Z,0.21
2022-12-22T19:17:31.979Z,0.19
2022-12-22T19:19:11.722Z,0.2
2022-12-22T19:20:51.505Z,0.2
2022-12-22T19:22:31.292Z,0.21
2022-12-22T19:24:11.026Z,0.19
2022-12-22T19:25:50.888Z,0.21
2022-12-22T19:27:30.587Z,0.21
2022-12-22T19:29:10.383Z,0.22
2022-12-22T19:30:50.095Z,0.21
2022-12-22T19:32:29.856Z,0.2
2022-12-22T19:34:09.613Z,0.19
2022-12-22T19:35:49.373Z,0.21
2022-12-22T19:37:29.161Z,0.21
2022-12-22T19:39:09.021Z,0.21
2022-12-22T19:40:48.775Z,0.17
2022-12-22T19:42:28.542Z,0.21
2022-12-22T19:44:08.253Z,0.18
2022-12-22T19:45:48.001Z,0.17
2022-12-22T19:47:27.783Z,0.17
2022-12-22T19:49:07.532Z,0.19
2022-12-22T19:50:47.292Z,0.21
2022-12-22T19:52:27.092Z,0.21
2022-12-22T19:54:06.915Z,0.17
2022-12-22T19:55:46.657Z,0.21
2022-12-22T19:57:26.458Z,0.17
2022-12-22T19:59:06.126Z,0.19
2022-12-22T20:00:45.917Z,0.19
2022-12-22T20:02:25.655Z,0.2
2022-12-22T20:04:05.415Z,0.19
2022-12-22T20:05:45.190Z,0.19
2022-12-22T20:07:24.949Z,0.18
2022-12-22T20:09:04.719Z,0.19
2022-12-22T20:10:44.488Z,0.18
2022-12-22T20:12:24.244Z,0.18
2022-12-22T20:14:04.011Z,0.19
2022-12-22T20:15:43.770Z,0.19
2022-12-22T20:17:23.539Z,0.19
2022-12-22T20:19:03.301Z,0.19
2022-12-22T20:20:43.106Z,0.18
2022-12-22T20:22:22.823Z,0.19
2022-12-22T20:24:02.598Z,0.18
2022-12-22T20:25:42.365Z,0.19
2022-12-22T20:27:22.255Z,0.19
2022-12-22T20:29:01.872Z,0.21
2022-12-22T20:30:41.651Z,0.2
2022-12-22T20:32:21.458Z,0.2
2022-12-22T20:34:01.199Z,0.23
2022-12-22T20:35:40.948Z,0.22
2022-12-22T20:37:20.709Z,0.22
2022-12-22T20:39:00.484Z,0.23
2022-12-22T20:40:40.324Z,0.23
2022-12-22T20:42:20.078Z,0.23
2022-12-22T20:43:59.770Z,0.23
2022-12-22T20:45:39.523Z,0.25
2022-12-22T20:47:19.288Z,0.22
2022-12-22T20:48:59.064Z,0.22
2022-12-22T20:50:38.812Z,0.24
2022-12-22T20:52:18.600Z,0.23
2022-12-22T20:53:58.360Z,0.24
2022-12-22T20:55:38.111Z,0.24
2022-12-22T20:57:17.904Z,0.24
2022-12-22T20:58:57.655Z,0.25
2022-12-22T21:00:37.417Z,0.23
2022-12-22T21:02:17.184Z,0.23
2022-12-22T21:03:56.924Z,0.24
2022-12-22T21:05:36.697Z,0.24
2022-12-22T21:07:16.463Z,0.24
2022-12-22T21:08:56.232Z,0.24
2022-12-22T21:10:36.049Z,0.25
2022-12-22T21:12:15.753Z,0.24
2022-12-22T21:13:55.542Z,0.23
2022-12-22T21:15:35.313Z,0.23
2022-12-22T21:17:15.217Z,0.23
2022-12-22T21:18:54.836Z,0.25
2022-12-22T21:20:34.665Z,0.24
2022-12-22T21:22:14.359Z,0.24
2022-12-22T21:23:54.135Z,0.24
2022-12-22T21:25:33.897Z,0.23
2022-12-22T21:27:13.663Z,0.25
2022-12-22T21:28:53.426Z,0.26
2022-12-22T21:30:33.193Z,0.26
2022-12-22T21:32:12.970Z,0.24
2022-12-22T21:33:52.722Z,0.25
2022-12-22T21:35:32.509Z,0.23
2022-12-22T21:37:12.347Z,0.24
2022-12-22T21:38:52.033Z,0.23
2022-12-22T21:40:31.830Z,0.22
2022-12-22T21:42:11.625Z,0.23
2022-12-22T21:43:51.346Z,0.22
2022-12-22T21:45:31.096Z,0.23
2022-12-22T21:47:10.861Z,0.22
2022-12-22T21:48:50.642Z,0.21
2022-12-22T21:50:30.406Z,0.21
2022-12-22T21:52:10.205Z,0.23
2022-12-22T21:53:49.948Z,0.23
2022-12-22T21:55:29.706Z,0.21